Language selection

Weather shortcuts

Bowie - northern half: Past 24 Hour Conditions

 

Sandspit Airport

03:00 AM PDT 20 April 2024
Disclaimer

This table is a summary of hourly weather conditions for the past 24 hours.
Please note that these observations might not always be representative of weather conditions over their associated marine area.

Date / Time
(PDT)
Wind(knots) Conditions Visibility(km) Pressure(kPa) Air tempC) Relative humidity(%) Dew pointC)
20 April 2024
3:00 W 3 Clear 16 101.5 5 85 3
2:00 WSW 5 Clear 16 101.6 5 85 3
1:00 W 3 Clear 16 101.7 6 72 1
0:00 NE 4 Clear 16 101.8 8 90 6
19 April 2024
23:00 calm Clear 16 101.8 8 63 1
22:00 S 3 Clear 16 101.9 8 71 3
21:00 SSE 7 Clear 16 101.9 8 83 5
20:00 SE 7 Sunny 16 101.9 11 70 6
19:00 ESE 12 Sunny 16 102.0 13 52 3
18:00 ESE 10 Sunny 16 102.1 13 59 5
17:00 ESE 10 Sunny 16 102.1 13 56 5
16:00 ESE 10 Sunny 16 102.2 13 56 5
15:00 SE 12 Sunny 16 102.2 14 53 4
14:00 SE 9 Sunny 16 102.3 14 55 5
13:00 E 5 Sunny 16 102.3 13 62 6
12:00 ENE 6 Sunny 16 102.3 11 74 7
11:00 NE 4 Sunny 16 102.4 11 64 4
10:00 NNW 3 Sunny 16 102.4 11 57 3
9:00 W 4 Sunny 16 102.4 7 72 2
8:00 W 6 Sunny 16 102.5 6 70 1
7:00 W 6 Sunny 16 102.5 4 71 -1
6:00 WSW 4 Clear 16 102.5 4 71 -1
5:00 W 6 Clear 16 102.5 4 70 -1
4:00 W 7 Clear 16 102.5 5 70 0
3:00 W 10 Clear 16 102.5 4 72 0

Zoom-in to make a selection

Map of Pacific - North Coast marine weather areas Middle Nomad - 46004 South Nomad - 46036 Dixon Entrance Central - 46145 South Moresby - 46147 Nanakwa Shoal - 46181 North Hecate Strait - 46183 North Nomad - 46184 South Hecate Strait - 46185 West Sea Otter - 46204 West Dixon Entrance - 46205 East Dellwood - 46207 West Moresby - 46208 Sartine Island Cape St.James Kindakun Rocks Langara Island Masset Municipal Airport Rose Spit Sandspit Airport Bella Bella Airport Bella Coola Airport Bonilla Island Cathedral Point Cumshewa Island Grey Islet Holland Rock Lucy Islands Lightstation Prince Rupert Airport
Legend:
buoy Buoy
land station Land Station

Pacific - North Coast Area

Another Region

Date modified: